Gerald R. Ford International Airport Grand Rapids US
ICAO: KGRR
IATA: GRR
Category: Medium
Scheduled Services: Yes

Elevation: 794 ft
TransAlt. 18000 ft.

Airport Communications:
GRAND RAPIDS APP/DEP:124.6
ATIS:127.1
CLNC DEL:119.3
CTAF:135.65
GND:121.8
LANSING RDO:115.95
GRAND RAPIDS TWR:135.65
UNICOM:122.95

KGRR Zoom In..

If Map Doesn't Load, Click Here

Runways:

(A) RW 08L length 5000 ft width 100 ft
---- / hdg 85

(B) RW 08R length 10000 ft width 150 ft
ILS 108.30 / hdg 85

(C) RW 17 length 8501 ft width 150 ft
---- / hdg 175

(D) RW 26L length 10000 ft width 150 ft
ILS 109.70 / hdg 265

(E) RW 26R length 5000 ft width 100 ft
---- / hdg 265

(F) RW 35 length 8501 ft width 150 ft
ILS 111.90 / hdg 355

Location; KGRR
Day. 21 / Time. 15.53 Zulu
* Altimeter: 29.82
* Temperature: 23° c. 73.4°f.
* Wind from: 250° Speed 19 kn with Gusts up to 28 kn.
Dewpoint: 18° c.
Visibility: 10 Statute Miles.
Clouds: Scattered 2700 ft.
Clouds: Scattered 4900 ft.
Clouds: Broken 24000 ft.

KGRR 211553Z 25019G28KT 10SM SCT027 SCT049 BKN240 23/18 A2982 RMK AO2 PK WND 27036/1500 SLP092 T02330178


Wind From 250°
Speed 19 kn.

 
 
jpsmedia.com for Web Design worldairports.se 2018   terms of use